createdAt,value
2019-02-18T00:00:47.816Z,993.50
2019-02-18T00:01:47.809Z,993.57
2019-02-18T00:02:47.782Z,993.54
2019-02-18T00:03:47.842Z,993.51
2019-02-18T00:04:47.771Z,993.56
2019-02-18T00:05:47.757Z,993.54
2019-02-18T00:06:47.738Z,993.54
2019-02-18T00:07:47.747Z,993.56
2019-02-18T00:08:47.717Z,993.52
2019-02-18T00:09:47.726Z,993.56
2019-02-18T00:10:47.706Z,993.51
2019-02-18T00:11:47.691Z,993.47
2019-02-18T00:12:47.736Z,993.48
2019-02-18T00:13:47.678Z,993.48
2019-02-18T00:14:47.669Z,993.53
2019-02-18T00:15:47.642Z,993.50
2019-02-18T00:16:47.648Z,993.49
2019-02-18T00:17:47.623Z,993.53
2019-02-18T00:18:47.609Z,993.46
2019-02-18T00:19:47.634Z,993.48
2019-02-18T00:20:47.620Z,993.44
2019-02-18T00:21:47.642Z,993.45
2019-02-18T00:22:47.594Z,993.46
2019-02-18T00:23:47.571Z,993.47
2019-02-18T00:24:47.612Z,993.44
2019-02-18T00:25:47.546Z,993.49
2019-02-18T00:26:47.545Z,993.47
2019-02-18T00:27:47.529Z,993.48
2019-02-18T00:28:47.506Z,993.49
2019-02-18T00:29:47.494Z,993.45
2019-02-18T00:30:47.543Z,993.48
2019-02-18T00:31:47.493Z,993.44
2019-02-18T00:32:47.475Z,993.46
2019-02-18T00:33:47.457Z,993.46
2019-02-18T00:34:47.439Z,993.51
2019-02-18T00:35:47.429Z,993.56
2019-02-18T00:36:47.480Z,993.53
2019-02-18T00:37:47.423Z,993.49
2019-02-18T00:38:47.402Z,993.56
2019-02-18T00:39:47.384Z,993.51
2019-02-18T00:40:47.468Z,993.53
2019-02-18T00:41:49.267Z,993.56
2019-02-18T00:42:47.372Z,993.51
2019-02-18T00:43:47.348Z,993.49
2019-02-18T00:44:47.343Z,993.51
2019-02-18T00:45:47.319Z,993.49
2019-02-18T00:46:47.325Z,993.51
2019-02-18T00:47:48.153Z,993.53
2019-02-18T00:48:47.289Z,993.50
2019-02-18T00:49:47.439Z,993.50
2019-02-18T00:50:47.264Z,993.50
2019-02-18T00:51:47.329Z,993.49
2019-02-18T00:52:47.263Z,993.47
2019-02-18T00:53:47.274Z,993.47
2019-02-18T00:54:47.228Z,993.46
2019-02-18T00:55:47.246Z,993.49
2019-02-18T00:56:47.303Z,993.40
2019-02-18T00:57:47.193Z,993.47
2019-02-18T00:58:47.183Z,993.43
2019-02-18T00:59:47.260Z,993.44
2019-02-18T01:00:47.230Z,993.41
2019-02-18T01:01:47.179Z,993.46
2019-02-18T01:02:47.140Z,993.46
2019-02-18T01:03:47.136Z,993.44
2019-02-18T01:04:47.139Z,993.47
2019-02-18T01:05:47.114Z,993.49
2019-02-18T01:06:47.105Z,993.46
2019-02-18T01:07:47.221Z,993.48
2019-02-18T01:08:47.084Z,993.49
2019-02-18T01:09:47.068Z,993.43
2019-02-18T01:10:47.062Z,993.49
2019-02-18T01:11:47.046Z,993.47
2019-02-18T01:12:47.046Z,993.50
2019-02-18T01:13:47.051Z,993.49
2019-02-18T01:14:47.025Z,993.42
2019-02-18T01:15:47.008Z,993.45
2019-02-18T01:16:47.077Z,993.45
2019-02-18T01:17:46.981Z,993.45
2019-02-18T01:18:46.994Z,993.46
2019-02-18T01:19:46.990Z,993.45
2019-02-18T01:20:46.964Z,993.46
2019-02-18T01:21:46.936Z,993.45
2019-02-18T01:22:46.930Z,993.46
2019-02-18T01:23:46.923Z,993.45
2019-02-18T01:24:46.907Z,993.49
2019-02-18T01:25:47.091Z,993.43
2019-02-18T01:26:46.897Z,993.46
2019-02-18T01:27:46.870Z,993.49
2019-02-18T01:28:46.879Z,993.45
2019-02-18T01:29:46.856Z,993.43
2019-02-18T01:30:46.906Z,993.46
2019-02-18T01:31:46.861Z,993.47
2019-02-18T01:32:46.824Z,993.46
2019-02-18T01:33:46.807Z,993.42
2019-02-18T01:34:46.814Z,993.46
2019-02-18T01:35:46.799Z,993.41
2019-02-18T01:36:46.792Z,993.40
2019-02-18T01:37:46.782Z,993.41
2019-02-18T01:38:46.747Z,993.41
2019-02-18T01:39:46.761Z,993.40
2019-02-18T01:40:46.801Z,993.39
2019-02-18T01:41:46.737Z,993.43
2019-02-18T01:42:46.713Z,993.41
2019-02-18T01:43:46.728Z,993.42
2019-02-18T01:44:46.687Z,993.39
2019-02-18T01:45:46.675Z,993.36
2019-02-18T01:46:46.730Z,993.37
2019-02-18T01:47:46.881Z,993.38
2019-02-18T01:48:46.660Z,993.36
2019-02-18T01:49:46.656Z,993.36
2019-02-18T01:50:46.658Z,993.38
2019-02-18T01:51:46.619Z,993.40
2019-02-18T01:52:46.602Z,993.38
2019-02-18T01:53:46.611Z,993.36
2019-02-18T01:54:46.577Z,993.37
2019-02-18T01:55:46.650Z,993.33
2019-02-18T01:56:46.559Z,993.39
2019-02-18T01:57:46.550Z,993.35
2019-02-18T01:58:46.625Z,993.36
2019-02-18T01:59:46.535Z,993.32
2019-02-18T02:00:46.541Z,993.34
2019-02-18T02:01:46.525Z,993.32
2019-02-18T02:02:46.541Z,993.38
2019-02-18T02:03:46.494Z,993.37
2019-02-18T02:04:46.476Z,993.30
2019-02-18T02:05:46.477Z,993.29
2019-02-18T02:06:46.454Z,993.26
2019-02-18T02:07:55.729Z,993.26
2019-02-18T02:08:47.478Z,993.24
2019-02-18T02:09:46.498Z,993.21
2019-02-18T02:10:46.444Z,993.23
2019-02-18T02:11:46.477Z,993.20
2019-02-18T02:12:46.424Z,993.17
2019-02-18T02:13:46.381Z,993.12
2019-02-18T02:14:46.411Z,993.14
2019-02-18T02:15:46.360Z,993.11
2019-02-18T02:16:46.353Z,993.11
2019-02-18T02:17:46.347Z,993.13
2019-02-18T02:18:46.338Z,993.11
2019-02-18T02:19:46.421Z,993.08
2019-02-18T02:20:46.311Z,993.12
2019-02-18T02:21:46.316Z,993.14
2019-02-18T02:22:46.371Z,993.12
2019-02-18T02:23:46.265Z,993.10
2019-02-18T02:24:46.258Z,993.12
2019-02-18T02:25:46.307Z,993.07
2019-02-18T02:26:46.313Z,993.08
2019-02-18T02:27:46.236Z,993.11
2019-02-18T02:28:46.236Z,993.11
2019-02-18T02:29:46.261Z,993.13
2019-02-18T02:30:46.281Z,993.10
2019-02-18T02:31:46.195Z,993.16
2019-02-18T02:32:46.186Z,993.15
2019-02-18T02:33:46.236Z,993.12
2019-02-18T02:34:46.160Z,993.11
2019-02-18T02:35:46.146Z,993.09
2019-02-18T02:36:46.135Z,993.08
2019-02-18T02:37:46.130Z,993.10
2019-02-18T02:38:46.124Z,993.09
2019-02-18T02:39:46.131Z,993.10
2019-02-18T02:40:46.153Z,993.11
2019-02-18T02:41:46.092Z,993.09
2019-02-18T02:42:46.085Z,993.10
2019-02-18T02:43:46.089Z,993.09
2019-02-18T02:44:46.050Z,993.06
2019-02-18T02:45:46.096Z,993.07
2019-02-18T02:46:46.047Z,993.07
2019-02-18T02:47:46.011Z,993.08
2019-02-18T02:48:46.025Z,993.05
2019-02-18T02:49:45.991Z,993.04
2019-02-18T02:50:46.054Z,993.07
2019-02-18T02:51:46.001Z,993.04
2019-02-18T02:52:45.961Z,992.99
2019-02-18T02:53:45.969Z,993.02
2019-02-18T02:54:45.938Z,993.03
2019-02-18T02:55:45.930Z,993.01
2019-02-18T02:56:45.929Z,993.02
2019-02-18T02:57:45.913Z,993.00
2019-02-18T02:58:45.936Z,993.02
2019-02-18T02:59:45.921Z,993.07
2019-02-18T03:00:45.937Z,993.02
2019-02-18T03:01:45.873Z,993.01
2019-02-18T03:02:45.875Z,993.01
2019-02-18T03:03:45.925Z,992.98
2019-02-18T03:04:45.861Z,993.00
2019-02-18T03:05:45.851Z,993.00
2019-02-18T03:06:45.823Z,992.95
2019-02-18T03:07:45.805Z,993.00
2019-02-18T03:08:45.810Z,992.97
2019-02-18T03:09:45.795Z,992.98
2019-02-18T03:10:45.792Z,992.94
2019-02-18T03:11:45.862Z,993.01
2019-02-18T03:12:45.752Z,993.00
2019-02-18T03:13:45.763Z,993.01
2019-02-18T03:14:45.755Z,992.98
2019-02-18T03:15:45.730Z,992.93
2019-02-18T03:16:45.711Z,992.97
2019-02-18T03:17:45.704Z,992.98
2019-02-18T03:18:45.704Z,993.01
2019-02-18T03:19:45.682Z,992.96
2019-02-18T03:20:45.729Z,992.99
2019-02-18T03:21:45.677Z,992.98
2019-02-18T03:22:45.655Z,992.99
2019-02-18T03:23:45.645Z,992.94
2019-02-18T03:24:45.626Z,992.91
2019-02-18T03:25:45.617Z,992.91
2019-02-18T03:26:45.662Z,992.89
2019-02-18T03:27:45.596Z,992.93
2019-02-18T03:28:45.607Z,992.84
2019-02-18T03:29:45.629Z,992.88
2019-02-18T03:30:45.576Z,992.86
2019-02-18T03:31:45.557Z,992.86
2019-02-18T03:32:45.541Z,992.87
2019-02-18T03:33:45.585Z,992.85
2019-02-18T03:34:45.518Z,992.88
2019-02-18T03:35:45.507Z,992.92
2019-02-18T03:36:45.597Z,992.87
2019-02-18T03:37:45.489Z,992.91
2019-02-18T03:38:45.498Z,992.82
2019-02-18T03:39:45.475Z,992.90
2019-02-18T03:40:45.465Z,992.88
2019-02-18T03:41:45.443Z,992.88
2019-02-18T03:42:45.537Z,992.92
2019-02-18T03:43:45.554Z,992.91
2019-02-18T03:44:45.424Z,992.92
2019-02-18T03:45:45.409Z,992.88
2019-02-18T03:46:45.416Z,992.91
2019-02-18T03:47:45.393Z,992.93
2019-02-18T03:48:45.386Z,992.97
2019-02-18T03:49:45.399Z,992.87
2019-02-18T03:50:45.435Z,992.87
2019-02-18T03:51:45.344Z,992.90
2019-02-18T03:52:45.350Z,992.87
2019-02-18T03:53:45.336Z,992.93
2019-02-18T03:54:45.301Z,992.90
2019-02-18T03:55:45.387Z,992.90
2019-02-18T03:56:45.282Z,992.94
2019-02-18T03:57:45.288Z,992.92
2019-02-18T03:58:45.275Z,992.95
2019-02-18T03:59:45.257Z,992.93
2019-02-18T04:00:45.303Z,992.96
2019-02-18T04:01:45.226Z,992.93
2019-02-18T04:02:45.223Z,992.94
2019-02-18T04:03:45.226Z,992.90
2019-02-18T04:04:45.207Z,992.92
2019-02-18T04:05:45.193Z,992.94
2019-02-18T04:06:45.184Z,992.93
2019-02-18T04:07:45.169Z,992.91
2019-02-18T04:08:45.219Z,992.85
2019-02-18T04:09:45.171Z,992.89
2019-02-18T04:10:45.142Z,992.87
2019-02-18T04:11:45.127Z,992.90
2019-02-18T04:12:45.120Z,992.88
2019-02-18T04:13:45.108Z,992.84
2019-02-18T04:14:45.103Z,992.83
2019-02-18T04:15:45.107Z,992.81
2019-02-18T04:16:45.078Z,992.78
2019-02-18T04:17:45.082Z,992.80
2019-02-18T04:18:45.060Z,992.78
2019-02-18T04:19:45.042Z,992.76
2019-02-18T04:20:45.058Z,992.77
2019-02-18T04:21:45.058Z,992.76
2019-02-18T04:22:45.008Z,992.83
2019-02-18T04:23:45.016Z,992.82
2019-02-18T04:24:45.050Z,992.75
2019-02-18T04:25:44.990Z,992.79
2019-02-18T04:26:44.981Z,992.78
2019-02-18T04:27:44.961Z,992.76
2019-02-18T04:28:44.945Z,992.78
2019-02-18T04:29:44.932Z,992.76
2019-02-18T04:30:44.938Z,992.72
2019-02-18T04:31:44.909Z,992.80
2019-02-18T04:32:44.947Z,992.73
2019-02-18T04:33:44.883Z,992.75
2019-02-18T04:34:44.886Z,992.77
2019-02-18T04:35:44.947Z,992.76
2019-02-18T04:36:45.073Z,992.78
2019-02-18T04:37:44.856Z,992.78
2019-02-18T04:38:53.817Z,992.77
2019-02-18T04:39:45.818Z,992.75
2019-02-18T04:40:44.822Z,992.76
2019-02-18T04:41:44.810Z,992.77
2019-02-18T04:42:44.823Z,992.74
2019-02-18T04:43:44.791Z,992.74
2019-02-18T04:44:44.761Z,992.73
2019-02-18T04:45:44.839Z,992.71
2019-02-18T04:46:44.758Z,992.78
2019-02-18T04:47:44.736Z,992.74
2019-02-18T04:48:44.808Z,992.76
2019-02-18T04:49:44.726Z,992.75
2019-02-18T04:50:44.743Z,992.76
2019-02-18T04:51:44.694Z,992.72
2019-02-18T04:52:44.676Z,992.72
2019-02-18T04:53:44.686Z,992.72
2019-02-18T04:54:44.653Z,992.75
2019-02-18T04:55:44.703Z,992.72
2019-02-18T04:56:44.646Z,992.75
2019-02-18T04:57:44.857Z,992.73
2019-02-18T04:58:44.622Z,992.73
2019-02-18T04:59:44.652Z,992.75
2019-02-18T05:00:44.615Z,992.74
2019-02-18T05:01:44.613Z,992.75
2019-02-18T05:02:44.573Z,992.75
2019-02-18T05:03:44.627Z,992.77
2019-02-18T05:04:44.557Z,992.75
2019-02-18T05:05:44.560Z,992.77
2019-02-18T05:06:44.543Z,992.74
2019-02-18T05:07:44.522Z,992.73
2019-02-18T05:08:44.506Z,992.73
2019-02-18T05:09:44.523Z,992.70
2019-02-18T05:10:44.494Z,992.73
2019-02-18T05:11:44.496Z,992.71
2019-02-18T05:12:44.475Z,992.71
2019-02-18T05:13:45.992Z,992.72
2019-02-18T05:14:44.442Z,992.74
2019-02-18T05:15:44.450Z,992.70
2019-02-18T05:16:44.437Z,992.71
2019-02-18T05:17:44.483Z,992.72
2019-02-18T05:18:44.611Z,992.76
2019-02-18T05:19:44.389Z,992.74
2019-02-18T05:20:44.392Z,992.76
2019-02-18T05:21:44.390Z,992.73
2019-02-18T05:22:44.362Z,992.71
2019-02-18T05:23:44.389Z,992.75
2019-02-18T05:24:44.355Z,992.72
2019-02-18T05:25:44.335Z,992.74
2019-02-18T05:26:44.345Z,992.74
2019-02-18T05:27:44.326Z,992.69
2019-02-18T05:28:44.376Z,992.72
2019-02-18T05:29:44.290Z,992.70
2019-02-18T05:30:44.284Z,992.65
2019-02-18T05:31:44.289Z,992.65
2019-02-18T05:32:44.260Z,992.65
2019-02-18T05:33:44.252Z,992.65
2019-02-18T05:34:44.249Z,992.66
2019-02-18T05:35:44.272Z,992.65
2019-02-18T05:36:44.232Z,992.60
2019-02-18T05:37:44.203Z,992.64
2019-02-18T05:38:44.193Z,992.63
2019-02-18T05:39:44.191Z,992.64
2019-02-18T05:40:44.219Z,992.66
2019-02-18T05:41:44.172Z,992.65
2019-02-18T05:42:44.174Z,992.65
2019-02-18T05:43:44.142Z,992.65
2019-02-18T05:44:44.134Z,992.70
2019-02-18T05:45:44.130Z,992.63
2019-02-18T05:46:44.142Z,992.61
2019-02-18T05:47:44.151Z,992.65
2019-02-18T05:48:44.105Z,992.69
2019-02-18T05:49:44.154Z,992.66
2019-02-18T05:50:44.073Z,992.63
2019-02-18T05:51:44.083Z,992.65
2019-02-18T05:52:44.070Z,992.66
2019-02-18T05:53:44.080Z,992.66
2019-02-18T05:54:44.027Z,992.68
2019-02-18T05:55:44.025Z,992.71
2019-02-18T05:56:44.021Z,992.70
2019-02-18T05:57:44.038Z,992.66
2019-02-18T05:58:43.982Z,992.65
2019-02-18T05:59:43.977Z,992.64
2019-02-18T06:00:44.340Z,992.63
2019-02-18T06:01:44.053Z,992.65
2019-02-18T06:02:43.960Z,992.63
2019-02-18T06:03:43.937Z,992.61
2019-02-18T06:04:43.920Z,992.61
2019-02-18T06:05:43.984Z,992.60
2019-02-18T06:06:43.918Z,992.60
2019-02-18T06:07:43.891Z,992.58
2019-02-18T06:08:43.894Z,992.57
2019-02-18T06:09:43.883Z,992.56
2019-02-18T06:10:43.871Z,992.56
2019-02-18T06:11:43.853Z,992.55
2019-02-18T06:12:43.878Z,992.56
2019-02-18T06:13:43.835Z,992.51
2019-02-18T06:14:43.933Z,992.55
2019-02-18T06:15:43.830Z,992.59
2019-02-18T06:16:43.798Z,992.58
2019-02-18T06:17:43.803Z,992.60
2019-02-18T06:18:43.774Z,992.58
2019-02-18T06:19:43.780Z,992.60
2019-02-18T06:20:43.769Z,992.62
2019-02-18T06:21:43.751Z,992.56
2019-02-18T06:22:43.764Z,992.58
2019-02-18T06:23:43.734Z,992.58
2019-02-18T06:24:43.793Z,992.55
2019-02-18T06:25:43.704Z,992.56
2019-02-18T06:26:43.711Z,992.59
2019-02-18T06:27:43.710Z,992.57
2019-02-18T06:28:43.688Z,992.53
2019-02-18T06:29:43.667Z,992.56
2019-02-18T06:30:43.653Z,992.54
2019-02-18T06:31:43.654Z,992.54
2019-02-18T06:32:43.724Z,992.53
2019-02-18T06:33:43.639Z,992.54
2019-02-18T06:34:43.617Z,992.58
2019-02-18T06:35:43.599Z,992.53
2019-02-18T06:36:43.596Z,992.56
2019-02-18T06:37:43.668Z,992.56
2019-02-18T06:38:43.578Z,992.54
2019-02-18T06:39:43.581Z,992.58
2019-02-18T06:40:43.677Z,992.58
2019-02-18T06:41:43.542Z,992.58
2019-02-18T06:42:43.524Z,992.53
2019-02-18T06:43:43.517Z,992.50
2019-02-18T06:44:43.504Z,992.51
2019-02-18T06:45:43.517Z,992.50
2019-02-18T06:46:43.490Z,992.49
2019-02-18T06:47:43.550Z,992.54
2019-02-18T06:48:43.478Z,992.47
2019-02-18T06:49:43.518Z,992.50
2019-02-18T06:50:43.445Z,992.49
2019-02-18T06:51:43.454Z,992.52
2019-02-18T06:52:43.425Z,992.50
2019-02-18T06:53:43.410Z,992.52
2019-02-18T06:54:43.402Z,992.50
2019-02-18T06:55:43.384Z,992.56
2019-02-18T06:56:43.384Z,992.54
2019-02-18T06:57:43.385Z,992.56
2019-02-18T06:58:43.436Z,992.55
2019-02-18T06:59:43.339Z,992.56
2019-02-18T07:00:43.334Z,992.52
2019-02-18T07:01:43.342Z,992.49
2019-02-18T07:02:43.325Z,992.49
2019-02-18T07:03:43.329Z,992.57
2019-02-18T07:04:43.297Z,992.53
2019-02-18T07:05:43.287Z,992.52
2019-02-18T07:06:43.265Z,992.54
2019-02-18T07:07:43.281Z,992.48
2019-02-18T07:08:43.296Z,992.56
2019-02-18T07:09:50.917Z,992.56
2019-02-18T07:10:44.226Z,992.58
2019-02-18T07:11:43.216Z,992.55
2019-02-18T07:12:43.228Z,992.56
2019-02-18T07:13:43.197Z,992.61
2019-02-18T07:14:43.187Z,992.61
2019-02-18T07:15:43.274Z,992.58
2019-02-18T07:16:43.172Z,992.61
2019-02-18T07:17:43.168Z,992.63
2019-02-18T07:18:43.144Z,992.55
2019-02-18T07:19:43.134Z,992.53
2019-02-18T07:20:43.136Z,992.51
2019-02-18T07:21:43.164Z,992.49
2019-02-18T07:22:43.104Z,992.47
2019-02-18T07:23:43.124Z,992.47
2019-02-18T07:24:43.080Z,992.50
2019-02-18T07:25:43.080Z,992.54
2019-02-18T07:26:43.070Z,992.53
2019-02-18T07:27:43.051Z,992.54
2019-02-18T07:28:43.053Z,992.57
2019-02-18T07:29:43.105Z,992.61
2019-02-18T07:30:43.039Z,992.57
2019-02-18T07:31:43.049Z,992.56
2019-02-18T07:32:43.001Z,992.61
2019-02-18T07:33:42.993Z,992.54
2019-02-18T07:34:42.971Z,992.54
2019-02-18T07:35:42.977Z,992.52
2019-02-18T07:36:42.953Z,992.53
2019-02-18T07:37:43.026Z,992.51
2019-02-18T07:38:42.939Z,992.49
2019-02-18T07:39:42.921Z,992.48
2019-02-18T07:40:42.927Z,992.49
2019-02-18T07:41:42.902Z,992.49
2019-02-18T07:42:42.916Z,992.44
2019-02-18T07:43:42.887Z,992.43
2019-02-18T07:44:42.876Z,992.39
2019-02-18T07:45:43.111Z,992.41
2019-02-18T07:46:42.858Z,992.39
2019-02-18T07:47:42.901Z,992.41
2019-02-18T07:48:42.827Z,992.44
2019-02-18T07:49:42.835Z,992.43
2019-02-18T07:50:42.821Z,992.45
2019-02-18T07:51:42.810Z,992.47
2019-02-18T07:52:42.795Z,992.46
2019-02-18T07:53:42.805Z,992.47
2019-02-18T07:54:42.800Z,992.46
2019-02-18T07:55:42.754Z,992.42
2019-02-18T07:56:42.741Z,992.48
2019-02-18T07:57:42.740Z,992.44
2019-02-18T07:58:42.723Z,992.43
2019-02-18T07:59:42.924Z,992.43
2019-02-18T08:00:42.772Z,992.42
2019-02-18T08:01:42.693Z,992.46
2019-02-18T08:02:42.682Z,992.45
2019-02-18T08:03:42.686Z,992.44
2019-02-18T08:04:42.654Z,992.44
2019-02-18T08:05:42.640Z,992.41
2019-02-18T08:06:42.661Z,992.35
2019-02-18T08:07:42.715Z,992.36
2019-02-18T08:08:42.628Z,992.41
2019-02-18T08:09:42.624Z,992.37
2019-02-18T08:10:42.589Z,992.40
2019-02-18T08:11:42.600Z,992.39
2019-02-18T08:12:42.572Z,992.39
2019-02-18T08:13:42.639Z,992.38
2019-02-18T08:14:42.550Z,992.37
2019-02-18T08:15:42.553Z,992.38
2019-02-18T08:16:42.523Z,992.38
2019-02-18T08:17:42.517Z,992.32
2019-02-18T08:18:42.535Z,992.36
2019-02-18T08:19:42.498Z,992.29
2019-02-18T08:20:42.531Z,992.27
2019-02-18T08:21:42.473Z,992.28
2019-02-18T08:22:42.469Z,992.27
2019-02-18T08:23:42.490Z,992.20
2019-02-18T08:24:42.439Z,992.24
2019-02-18T08:25:42.433Z,992.23
2019-02-18T08:26:44.069Z,992.20
2019-02-18T08:27:42.408Z,992.21
2019-02-18T08:28:42.477Z,992.22
2019-02-18T08:29:42.405Z,992.23
2019-02-18T08:30:42.380Z,992.26
2019-02-18T08:31:42.365Z,992.24
2019-02-18T08:32:42.361Z,992.28
2019-02-18T08:33:42.361Z,992.28
2019-02-18T08:34:42.448Z,992.22
2019-02-18T08:35:42.324Z,992.27
2019-02-18T08:36:42.314Z,992.23
2019-02-18T08:37:42.306Z,992.24
2019-02-18T08:38:42.304Z,992.23
2019-02-18T08:39:42.281Z,992.24
2019-02-18T08:40:42.335Z,992.25
2019-02-18T08:41:42.257Z,992.27
2019-02-18T08:42:42.254Z,992.27
2019-02-18T08:43:42.302Z,992.30
2019-02-18T08:44:42.239Z,992.29
2019-02-18T08:45:42.216Z,992.23
2019-02-18T08:46:42.257Z,992.26
2019-02-18T08:47:42.194Z,992.25
2019-02-18T08:48:42.206Z,992.23
2019-02-18T08:49:42.175Z,992.17
2019-02-18T08:50:42.178Z,992.18
2019-02-18T08:51:42.159Z,992.17
2019-02-18T08:52:42.136Z,992.19
2019-02-18T08:53:42.135Z,992.13
2019-02-18T08:54:42.211Z,992.19
2019-02-18T08:55:42.112Z,992.14
2019-02-18T08:56:42.097Z,992.11
2019-02-18T08:57:42.092Z,992.15
2019-02-18T08:58:42.144Z,992.12
2019-02-18T08:59:42.066Z,992.10
2019-02-18T09:00:42.076Z,992.11
2019-02-18T09:01:42.048Z,992.05
2019-02-18T09:02:42.046Z,992.04
2019-02-18T09:03:42.028Z,991.99
2019-02-18T09:04:42.046Z,991.97
2019-02-18T09:05:42.003Z,992.02
2019-02-18T09:06:42.009Z,992.04
2019-02-18T09:07:41.984Z,992.00
2019-02-18T09:08:41.983Z,992.04
2019-02-18T09:09:42.007Z,992.02
2019-02-18T09:10:41.950Z,991.98
2019-02-18T09:11:41.988Z,991.96
2019-02-18T09:12:41.923Z,991.95
2019-02-18T09:13:41.930Z,991.98
2019-02-18T09:14:41.912Z,991.98
2019-02-18T09:15:41.896Z,991.97
2019-02-18T09:16:41.886Z,991.94
2019-02-18T09:17:41.932Z,991.89
2019-02-18T09:18:41.888Z,991.89
2019-02-18T09:19:41.855Z,991.93
2019-02-18T09:20:41.848Z,991.94
2019-02-18T09:21:41.832Z,991.87
2019-02-18T09:22:41.822Z,991.88
2019-02-18T09:23:41.827Z,991.92
2019-02-18T09:24:41.858Z,991.89
2019-02-18T09:25:43.529Z,991.89
2019-02-18T09:26:41.781Z,991.87
2019-02-18T09:27:41.765Z,991.87
2019-02-18T09:28:41.770Z,991.84
2019-02-18T09:29:41.750Z,991.86
2019-02-18T09:30:41.946Z,991.89
2019-02-18T09:31:42.853Z,991.87
2019-02-18T09:32:41.747Z,991.90
2019-02-18T09:33:41.696Z,991.88
2019-02-18T09:34:41.707Z,991.88
2019-02-18T09:35:41.720Z,991.87
2019-02-18T09:36:41.679Z,991.85
2019-02-18T09:37:41.659Z,991.88
2019-02-18T09:38:41.682Z,991.93
2019-02-18T09:39:41.632Z,991.94
2019-02-18T09:40:44.721Z,991.94
2019-02-18T09:41:42.616Z,991.92
2019-02-18T09:42:41.606Z,991.88
2019-02-18T09:43:41.590Z,991.88
2019-02-18T09:44:41.585Z,991.87
2019-02-18T09:45:41.624Z,991.90
2019-02-18T09:46:41.577Z,991.89
2019-02-18T09:47:41.545Z,991.87
2019-02-18T09:48:41.534Z,991.87
2019-02-18T09:49:41.524Z,991.90
2019-02-18T09:50:41.518Z,991.87
2019-02-18T09:51:41.553Z,991.86
2019-02-18T09:52:41.509Z,991.85
2019-02-18T09:53:41.480Z,991.82
2019-02-18T09:54:41.468Z,991.86
2019-02-18T09:55:41.469Z,991.80
2019-02-18T09:56:41.448Z,991.80
2019-02-18T09:57:41.488Z,991.79
2019-02-18T09:58:41.440Z,991.86
2019-02-18T09:59:41.423Z,991.78
2019-02-18T10:00:41.486Z,991.81
2019-02-18T10:01:43.116Z,991.83
2019-02-18T10:02:41.381Z,991.83
2019-02-18T10:03:41.558Z,991.76
2019-02-18T10:04:41.365Z,991.79
2019-02-18T10:05:41.359Z,991.76
2019-02-18T10:06:41.339Z,991.78
2019-02-18T10:07:41.333Z,991.77
2019-02-18T10:08:41.338Z,991.73
2019-02-18T10:09:41.356Z,991.75
2019-02-18T10:10:41.379Z,991.72
2019-02-18T10:11:41.291Z,991.74
2019-02-18T10:12:41.469Z,991.75
2019-02-18T10:13:41.266Z,991.71
2019-02-18T10:14:41.274Z,991.74
2019-02-18T10:15:41.291Z,991.70
2019-02-18T10:16:41.239Z,991.74
2019-02-18T10:17:41.229Z,991.71
2019-02-18T10:18:41.216Z,991.71
2019-02-18T10:19:42.940Z,991.72
2019-02-18T10:20:41.210Z,991.71
2019-02-18T10:21:41.238Z,991.65
2019-02-18T10:22:41.168Z,991.64
2019-02-18T10:23:41.159Z,991.68
2019-02-18T10:24:50.643Z,991.60
2019-02-18T10:25:42.149Z,991.65
2019-02-18T10:26:41.129Z,991.64
2019-02-18T10:27:41.145Z,991.65
2019-02-18T10:28:41.105Z,991.67
2019-02-18T10:29:41.092Z,991.66
2019-02-18T10:30:41.084Z,991.67
2019-02-18T10:31:41.103Z,991.69
2019-02-18T10:32:41.073Z,991.67
2019-02-18T10:33:41.108Z,991.67
2019-02-18T10:34:41.107Z,991.67
2019-02-18T10:35:41.030Z,991.63
2019-02-18T10:36:41.016Z,991.63
2019-02-18T10:37:41.027Z,991.60
2019-02-18T10:38:41.006Z,991.56
2019-02-18T10:39:40.987Z,991.54
2019-02-18T10:40:40.978Z,991.61
2019-02-18T10:41:41.012Z,991.57
2019-02-18T10:42:40.950Z,991.59
2019-02-18T10:43:40.956Z,991.57
2019-02-18T10:44:40.928Z,991.58
2019-02-18T10:45:40.922Z,991.54
2019-02-18T10:46:40.921Z,991.51
2019-02-18T10:47:40.898Z,991.46
2019-02-18T10:48:40.953Z,991.45
2019-02-18T10:49:40.896Z,991.48
2019-02-18T10:50:40.882Z,991.43
2019-02-18T10:51:40.860Z,991.40
2019-02-18T10:52:40.842Z,991.48
2019-02-18T10:53:40.833Z,991.42
2019-02-18T10:54:40.823Z,991.42
2019-02-18T10:55:40.888Z,991.41
2019-02-18T10:56:40.799Z,991.40
2019-02-18T10:57:40.798Z,991.44
2019-02-18T10:58:40.779Z,991.41
2019-02-18T10:59:40.775Z,991.35
2019-02-18T11:00:40.762Z,991.40
2019-02-18T11:01:40.783Z,991.34
2019-02-18T11:02:40.742Z,991.35
2019-02-18T11:03:40.726Z,991.34
2019-02-18T11:04:40.715Z,991.34
2019-02-18T11:05:40.703Z,991.30
2019-02-18T11:06:40.698Z,991.31
2019-02-18T11:07:40.738Z,991.33
2019-02-18T11:08:40.676Z,991.29
2019-02-18T11:09:40.726Z,991.29
2019-02-18T11:10:40.653Z,991.31
2019-02-18T11:11:40.641Z,991.30
2019-02-18T11:12:40.629Z,991.27
2019-02-18T11:13:40.679Z,991.27
2019-02-18T11:14:40.624Z,991.24
2019-02-18T11:15:40.601Z,991.28
2019-02-18T11:16:40.587Z,991.20
2019-02-18T11:17:40.576Z,991.23
2019-02-18T11:18:40.636Z,991.25
2019-02-18T11:19:40.619Z,991.24
2019-02-18T11:20:40.548Z,991.22
2019-02-18T11:21:40.541Z,991.17
2019-02-18T11:22:40.521Z,991.13
2019-02-18T11:23:40.507Z,991.13
2019-02-18T11:24:40.498Z,991.11
2019-02-18T11:25:40.547Z,991.15
2019-02-18T11:26:40.480Z,991.16
2019-02-18T11:27:40.465Z,991.13
2019-02-18T11:28:40.460Z,991.14
2019-02-18T11:29:40.456Z,991.09
2019-02-18T11:30:40.433Z,991.13
2019-02-18T11:31:40.449Z,991.03
2019-02-18T11:32:40.435Z,991.05
2019-02-18T11:33:40.397Z,991.03
2019-02-18T11:34:40.402Z,991.00
2019-02-18T11:35:40.373Z,991.01
2019-02-18T11:36:40.361Z,990.97
2019-02-18T11:37:40.350Z,991.00
2019-02-18T11:38:40.367Z,990.98
2019-02-18T11:39:40.380Z,990.99
2019-02-18T11:40:40.323Z,990.93
2019-02-18T11:41:40.315Z,990.93
2019-02-18T11:42:40.325Z,990.95
2019-02-18T11:43:40.324Z,990.89
2019-02-18T11:44:40.294Z,990.89
2019-02-18T11:45:40.267Z,990.92
2019-02-18T11:46:40.252Z,990.88
2019-02-18T11:47:40.243Z,990.88
2019-02-18T11:48:40.229Z,990.87
2019-02-18T11:49:40.291Z,990.86
2019-02-18T11:50:40.210Z,990.84
2019-02-18T11:51:40.208Z,990.87
2019-02-18T11:52:40.195Z,990.85
2019-02-18T11:53:40.186Z,990.84
2019-02-18T11:54:40.165Z,990.87
2019-02-18T11:55:40.227Z,990.79
2019-02-18T11:56:40.143Z,990.82
2019-02-18T11:57:40.139Z,990.79
2019-02-18T11:58:40.124Z,990.78
2019-02-18T11:59:40.111Z,990.82
2019-02-18T12:00:40.105Z,990.77
2019-02-18T12:01:40.160Z,990.82
2019-02-18T12:02:40.078Z,990.80
2019-02-18T12:03:40.087Z,990.75
2019-02-18T12:04:40.060Z,990.78
2019-02-18T12:05:40.051Z,990.74
2019-02-18T12:06:40.039Z,990.73
2019-02-18T12:07:40.098Z,990.73
2019-02-18T12:08:40.022Z,990.74
2019-02-18T12:09:40.003Z,990.67
2019-02-18T12:10:39.993Z,990.74
2019-02-18T12:11:39.989Z,990.72
2019-02-18T12:12:40.062Z,990.67
2019-02-18T12:13:40.028Z,990.69
2019-02-18T12:14:39.950Z,990.64
2019-02-18T12:15:39.952Z,990.64
2019-02-18T12:16:39.927Z,990.63
2019-02-18T12:17:39.919Z,990.63
2019-02-18T12:18:39.908Z,990.60
2019-02-18T12:19:39.979Z,990.62
2019-02-18T12:20:39.886Z,990.61
2019-02-18T12:21:39.874Z,990.64
2019-02-18T12:22:39.874Z,990.55
2019-02-18T12:23:39.857Z,990.56
2019-02-18T12:24:39.849Z,990.51
2019-02-18T12:25:39.860Z,990.53
2019-02-18T12:26:39.851Z,990.50
2019-02-18T12:27:39.813Z,990.53
2019-02-18T12:28:39.836Z,990.45